createdAt,value
2022-09-30T00:01:07.150Z,2.70
2022-09-30T00:03:34.077Z,3.00
2022-09-30T00:06:07.887Z,2.70
2022-09-30T00:08:34.902Z,2.97
2022-09-30T00:11:07.160Z,2.50
2022-09-30T00:13:35.292Z,2.83
2022-09-30T00:16:02.271Z,2.87
2022-09-30T00:18:29.544Z,3.40
2022-09-30T00:20:56.875Z,3.00
2022-09-30T00:23:24.250Z,4.13
2022-09-30T00:25:51.572Z,4.43
2022-09-30T00:28:18.464Z,6.57
2022-09-30T00:30:45.205Z,5.77
2022-09-30T00:33:11.986Z,5.97
2022-09-30T00:35:38.777Z,5.93
2022-09-30T00:38:05.695Z,6.50
2022-09-30T00:40:32.474Z,5.60
2022-09-30T00:43:00.450Z,5.50
2022-09-30T00:45:29.776Z,5.27
2022-09-30T00:48:00.796Z,5.30
2022-09-30T00:50:42.482Z,4.90
2022-09-30T00:53:16.927Z,4.67
2022-09-30T00:55:48.624Z,5.00
2022-09-30T00:58:20.319Z,4.63
2022-09-30T01:00:47.399Z,4.30
2022-09-30T01:03:15.087Z,4.13
2022-09-30T01:05:42.057Z,4.10
2022-09-30T01:08:10.192Z,3.90
2022-09-30T01:10:37.778Z,3.80
2022-09-30T01:13:05.247Z,3.90
2022-09-30T01:16:07.155Z,3.77
2022-09-30T01:19:02.705Z,3.70
2022-09-30T01:21:45.192Z,3.90
2022-09-30T01:24:24.724Z,3.60
2022-09-30T01:27:00.209Z,3.60
2022-09-30T01:29:34.593Z,3.93
2022-09-30T01:32:18.076Z,3.70
2022-09-30T01:34:51.314Z,3.87
2022-09-30T01:37:40.324Z,3.90
2022-09-30T01:40:22.898Z,3.70
2022-09-30T01:43:10.037Z,3.53
2022-09-30T01:45:45.918Z,3.30
2022-09-30T01:48:31.599Z,3.70
2022-09-30T01:51:17.750Z,3.60
2022-09-30T01:53:52.004Z,3.50
2022-09-30T01:56:23.518Z,3.30
2022-09-30T01:59:13.638Z,3.57
2022-09-30T02:02:08.470Z,3.50
2022-09-30T02:04:57.753Z,3.27
2022-09-30T02:07:47.043Z,3.60
2022-09-30T02:10:22.428Z,3.40
2022-09-30T02:12:57.461Z,3.07
2022-09-30T02:15:28.505Z,3.30
2022-09-30T02:18:03.731Z,3.40
2022-09-30T02:20:34.651Z,3.40
2022-09-30T02:23:14.653Z,3.33
2022-09-30T02:25:53.687Z,3.23
2022-09-30T02:28:28.443Z,3.27
2022-09-30T02:30:59.359Z,3.20
2022-09-30T02:33:40.764Z,3.53
2022-09-30T02:36:25.025Z,3.10
2022-09-30T02:39:01.736Z,2.83
2022-09-30T02:41:30.870Z,2.90
2022-09-30T02:43:58.112Z,2.83
2022-09-30T02:46:33.995Z,3.13
2022-09-30T02:49:08.322Z,3.07
2022-09-30T02:51:42.533Z,2.90
2022-09-30T02:54:35.825Z,2.93
2022-09-30T02:57:15.853Z,2.70
2022-09-30T02:59:42.650Z,2.80
2022-09-30T03:02:09.404Z,2.93
2022-09-30T03:04:37.325Z,2.80
2022-09-30T03:07:04.309Z,2.60
2022-09-30T03:09:31.129Z,2.50
2022-09-30T03:12:10.458Z,2.60
2022-09-30T03:15:01.670Z,2.83
2022-09-30T03:17:46.741Z,2.70
2022-09-30T03:20:31.999Z,2.53
2022-09-30T03:23:23.483Z,2.57
2022-09-30T03:26:08.725Z,2.60
2022-09-30T03:28:53.044Z,2.50
2022-09-30T03:31:40.054Z,2.60
2022-09-30T03:34:34.050Z,2.40
2022-09-30T03:37:12.107Z,2.60
2022-09-30T03:39:57.074Z,2.50
2022-09-30T03:42:37.422Z,2.47
2022-09-30T03:45:12.081Z,2.57
2022-09-30T03:47:44.749Z,2.80
2022-09-30T03:50:15.004Z,2.60
2022-09-30T03:52:42.121Z,2.70
2022-09-30T03:55:11.576Z,2.87
2022-09-30T03:57:38.251Z,2.93
2022-09-30T04:00:07.196Z,2.50
2022-09-30T04:02:37.584Z,2.53
2022-09-30T04:05:05.629Z,2.93
2022-09-30T04:07:33.079Z,2.80
2022-09-30T04:09:59.956Z,2.90
2022-09-30T04:12:26.776Z,2.90
2022-09-30T04:14:53.584Z,2.70
2022-09-30T04:17:20.444Z,2.87
2022-09-30T04:19:47.211Z,2.70
2022-09-30T04:22:13.880Z,3.10
2022-09-30T04:24:40.644Z,2.87
2022-09-30T04:27:07.374Z,2.77
2022-09-30T04:29:34.112Z,2.67
2022-09-30T04:32:01.136Z,2.80
2022-09-30T04:34:27.882Z,3.03
2022-09-30T04:36:54.661Z,2.90
2022-09-30T04:39:21.527Z,2.90
2022-09-30T04:41:48.468Z,3.20
2022-09-30T04:44:15.823Z,3.00
2022-09-30T04:46:43.969Z,2.93
2022-09-30T04:49:10.777Z,2.97
2022-09-30T04:51:38.464Z,3.10
2022-09-30T04:54:05.578Z,3.10
2022-09-30T04:56:33.012Z,3.53
2022-09-30T04:58:59.862Z,3.43
2022-09-30T05:01:26.677Z,3.40
2022-09-30T05:03:54.732Z,3.17
2022-09-30T05:06:21.851Z,3.40
2022-09-30T05:08:48.792Z,3.20
2022-09-30T05:11:20.894Z,3.40
2022-09-30T05:13:48.313Z,3.03
2022-09-30T05:16:15.941Z,3.03
2022-09-30T05:18:45.613Z,2.97
2022-09-30T05:21:14.342Z,2.90
2022-09-30T05:23:41.150Z,2.60
2022-09-30T05:26:11.973Z,3.30
2022-09-30T05:28:39.279Z,3.07
2022-09-30T05:31:06.553Z,2.87
2022-09-30T05:33:34.847Z,3.03
2022-09-30T05:36:03.921Z,2.83
2022-09-30T05:38:30.762Z,3.00
2022-09-30T05:40:57.487Z,2.83
2022-09-30T05:43:24.285Z,3.00
2022-09-30T05:45:58.607Z,2.67
2022-09-30T05:48:26.732Z,3.00
2022-09-30T05:53:22.822Z,2.83
2022-09-30T05:55:50.498Z,3.00
2022-09-30T05:58:18.113Z,2.97
2022-09-30T06:00:46.767Z,2.90
2022-09-30T06:03:14.041Z,2.67
2022-09-30T06:05:41.003Z,2.80
2022-09-30T06:08:07.874Z,3.00
2022-09-30T06:10:35.400Z,3.00
2022-09-30T06:13:05.133Z,2.50
2022-09-30T06:15:32.375Z,3.00
2022-09-30T06:17:59.014Z,3.07
2022-09-30T06:20:25.839Z,3.10
2022-09-30T06:22:52.583Z,3.00
2022-09-30T06:25:19.244Z,3.30
2022-09-30T06:27:47.112Z,2.90
2022-09-30T06:30:14.573Z,3.60
2022-09-30T06:32:42.463Z,5.27
2022-09-30T06:35:10.370Z,7.90
2022-09-30T06:37:37.944Z,8.17
2022-09-30T06:40:06.321Z,8.13
2022-09-30T06:42:33.132Z,7.27
2022-09-30T06:45:00.020Z,6.87
2022-09-30T06:47:26.928Z,6.87
2022-09-30T06:49:58.495Z,6.27
2022-09-30T06:52:26.517Z,6.07
2022-09-30T06:54:56.620Z,5.63
2022-09-30T06:57:24.997Z,5.57
2022-09-30T06:59:51.982Z,5.33
2022-09-30T07:02:18.908Z,5.53
2022-09-30T07:04:45.666Z,5.50
2022-09-30T07:07:12.623Z,5.53
2022-09-30T07:09:39.394Z,5.70
2022-09-30T07:12:08.830Z,5.60
2022-09-30T07:14:36.975Z,5.77
2022-09-30T07:17:04.756Z,5.70
2022-09-30T07:19:34.200Z,5.90
2022-09-30T07:22:21.585Z,5.70
2022-09-30T07:24:48.716Z,5.87
2022-09-30T07:27:15.907Z,6.23
2022-09-30T07:30:07.626Z,6.40
2022-09-30T07:32:30.914Z,6.00
2022-09-30T07:34:57.740Z,6.10
2022-09-30T07:37:26.114Z,6.10
2022-09-30T07:39:53.121Z,6.50
2022-09-30T07:42:22.757Z,6.67
2022-09-30T07:44:52.256Z,7.53
2022-09-30T07:47:20.064Z,7.50
2022-09-30T07:49:47.587Z,8.40
2022-09-30T07:52:14.701Z,7.43
2022-09-30T07:54:46.770Z,7.40
2022-09-30T07:57:17.007Z,7.00
2022-09-30T07:59:43.903Z,7.80
2022-09-30T08:02:18.446Z,7.53
2022-09-30T08:04:45.578Z,8.30
2022-09-30T08:07:14.116Z,7.87
2022-09-30T08:09:40.855Z,7.87
2022-09-30T08:12:07.644Z,8.10
2022-09-30T08:14:34.494Z,9.03
2022-09-30T08:17:01.504Z,8.27
2022-09-30T08:19:29.676Z,8.63
2022-09-30T08:21:57.113Z,8.40
2022-09-30T08:24:25.136Z,7.40
2022-09-30T08:26:52.605Z,7.83
2022-09-30T08:32:06.582Z,8.20
2022-09-30T08:34:35.889Z,8.60
2022-09-30T08:37:07.908Z,7.37
2022-09-30T08:39:36.386Z,7.50
2022-09-30T08:42:32.460Z,8.40
2022-09-30T08:45:13.312Z,7.70
2022-09-30T08:47:51.369Z,7.67
2022-09-30T08:50:30.327Z,8.47
2022-09-30T08:53:03.799Z,7.87
2022-09-30T08:55:39.563Z,7.43
2022-09-30T08:58:07.758Z,7.23
2022-09-30T09:00:34.992Z,7.83
2022-09-30T09:03:03.275Z,8.93
2022-09-30T09:05:39.501Z,7.57
2022-09-30T09:08:24.995Z,7.67
2022-09-30T09:10:59.551Z,7.87
2022-09-30T09:13:48.398Z,7.43
2022-09-30T09:16:41.207Z,7.57
2022-09-30T09:19:16.182Z,7.60
2022-09-30T09:22:00.659Z,7.63
2022-09-30T09:24:38.178Z,8.53
2022-09-30T09:27:20.706Z,8.53
2022-09-30T09:30:02.710Z,8.43
2022-09-30T09:32:30.311Z,8.87
2022-09-30T09:35:15.758Z,8.20
2022-09-30T09:38:26.116Z,7.90
2022-09-30T09:41:18.332Z,9.27
2022-09-30T09:43:49.479Z,8.63
2022-09-30T09:46:28.404Z,8.90
2022-09-30T09:49:26.786Z,8.30
2022-09-30T09:51:59.374Z,7.63
2022-09-30T09:54:28.143Z,7.07
2022-09-30T09:56:55.012Z,7.20
2022-09-30T09:59:21.900Z,7.47
2022-09-30T10:01:51.734Z,6.63
2022-09-30T10:04:26.074Z,6.80
2022-09-30T10:06:59.913Z,7.73
2022-09-30T10:09:43.082Z,6.70
2022-09-30T10:12:12.851Z,6.37
2022-09-30T10:14:46.355Z,6.50
2022-09-30T10:17:30.596Z,6.63
2022-09-30T10:20:08.036Z,5.90
2022-09-30T10:22:36.271Z,5.90
2022-09-30T10:25:24.236Z,5.47
2022-09-30T10:27:55.844Z,5.63
2022-09-30T10:30:39.400Z,5.13
2022-09-30T10:33:23.818Z,4.47
2022-09-30T10:35:57.762Z,4.40
2022-09-30T10:38:26.750Z,4.30
2022-09-30T10:40:53.570Z,4.40
2022-09-30T10:43:34.400Z,3.83
2022-09-30T10:46:24.499Z,4.10
2022-09-30T10:48:51.445Z,4.67
2022-09-30T10:51:25.725Z,4.23
2022-09-30T10:53:52.777Z,3.97
2022-09-30T10:56:41.499Z,3.90
2022-09-30T10:59:21.563Z,4.13
2022-09-30T11:02:00.908Z,3.60
2022-09-30T11:04:42.021Z,3.60
2022-09-30T11:07:43.155Z,3.50
2022-09-30T11:10:40.119Z,3.67
2022-09-30T11:13:40.164Z,3.27
2022-09-30T11:16:17.735Z,3.30
2022-09-30T11:18:53.314Z,2.97
2022-09-30T11:21:43.305Z,3.17
2022-09-30T11:24:40.646Z,2.90
2022-09-30T11:27:26.037Z,2.70
2022-09-30T11:30:20.560Z,2.70
2022-09-30T11:33:02.447Z,2.50
2022-09-30T11:36:00.299Z,2.40
2022-09-30T11:38:26.960Z,2.30
2022-09-30T11:41:03.242Z,2.43
2022-09-30T11:43:30.245Z,2.13
2022-09-30T11:46:25.200Z,2.30
2022-09-30T11:49:29.137Z,2.10
2022-09-30T11:52:17.377Z,1.93
2022-09-30T11:55:15.632Z,2.03
2022-09-30T11:58:22.262Z,2.07
2022-09-30T12:00:59.407Z,2.20
2022-09-30T12:03:33.552Z,2.73
2022-09-30T12:06:05.228Z,2.27
2022-09-30T12:08:50.556Z,2.47
2022-09-30T12:11:28.893Z,2.50
2022-09-30T12:13:57.774Z,2.70
2022-09-30T12:16:27.254Z,2.43
2022-09-30T12:18:57.828Z,2.27
2022-09-30T12:21:39.194Z,2.20
2022-09-30T12:24:11.552Z,2.47
2022-09-30T12:26:38.467Z,2.93
2022-09-30T12:29:42.055Z,2.40
2022-09-30T12:32:42.406Z,2.47
2022-09-30T12:35:19.211Z,2.40
2022-09-30T12:38:12.350Z,2.33
2022-09-30T12:40:59.129Z,2.50
2022-09-30T12:44:05.880Z,2.60
2022-09-30T12:46:41.603Z,2.13
2022-09-30T12:49:14.896Z,2.10
2022-09-30T12:51:45.178Z,2.17
2022-09-30T12:54:18.907Z,1.80
2022-09-30T12:56:47.246Z,1.70
2022-09-30T12:59:14.712Z,1.80
2022-09-30T13:01:42.307Z,1.73
2022-09-30T13:04:10.608Z,1.60
2022-09-30T13:06:46.562Z,1.63
2022-09-30T13:09:16.397Z,1.73
2022-09-30T13:11:44.594Z,1.53
2022-09-30T13:14:18.255Z,1.50
2022-09-30T13:17:07.865Z,1.87
2022-09-30T13:19:50.082Z,1.40
2022-09-30T13:22:29.829Z,1.40
2022-09-30T13:25:05.559Z,1.30
2022-09-30T13:27:44.297Z,1.50
2022-09-30T13:30:14.747Z,1.30
2022-09-30T13:32:52.474Z,1.37
2022-09-30T13:35:49.993Z,1.30
2022-09-30T13:38:19.233Z,1.50
2022-09-30T13:41:02.654Z,1.33
2022-09-30T13:43:59.444Z,1.30
2022-09-30T13:46:40.096Z,1.10
2022-09-30T13:49:21.035Z,1.07
2022-09-30T13:51:48.705Z,1.50
2022-09-30T13:54:40.361Z,1.20
2022-09-30T13:57:10.415Z,1.33
2022-09-30T13:59:43.154Z,1.30
2022-09-30T14:02:41.054Z,1.50
2022-09-30T14:05:35.321Z,1.70
2022-09-30T14:08:24.171Z,1.60
2022-09-30T14:11:02.714Z,1.40
2022-09-30T14:14:01.925Z,1.70
2022-09-30T14:16:47.380Z,1.63
2022-09-30T14:19:26.077Z,1.40
2022-09-30T14:21:58.812Z,1.70
2022-09-30T14:24:27.760Z,1.50
2022-09-30T14:27:04.025Z,1.57
2022-09-30T14:29:43.795Z,1.60
2022-09-30T14:32:43.251Z,1.60
2022-09-30T14:35:29.569Z,1.40
2022-09-30T14:38:15.320Z,1.53
2022-09-30T14:40:50.235Z,1.50
2022-09-30T14:43:20.937Z,1.30
2022-09-30T14:45:52.364Z,1.43
2022-09-30T14:48:21.771Z,1.30
2022-09-30T14:50:56.227Z,1.33
2022-09-30T14:53:30.060Z,1.40
2022-09-30T14:55:58.058Z,1.23
2022-09-30T14:58:38.430Z,1.40
2022-09-30T15:01:19.030Z,1.20
2022-09-30T15:03:57.968Z,1.43
2022-09-30T15:06:33.706Z,1.40
2022-09-30T15:09:07.082Z,1.13
2022-09-30T15:11:39.448Z,1.13
2022-09-30T15:14:11.343Z,1.07
2022-09-30T15:17:20.228Z,1.40
2022-09-30T15:19:47.497Z,1.20
2022-09-30T15:22:14.850Z,1.30
2022-09-30T15:24:42.091Z,1.23
2022-09-30T15:27:22.246Z,1.30
2022-09-30T15:29:56.747Z,1.30
2022-09-30T15:32:25.059Z,1.70
2022-09-30T15:34:52.443Z,1.60
2022-09-30T15:37:24.129Z,1.50
2022-09-30T15:40:23.450Z,1.60
2022-09-30T15:42:57.152Z,1.60
2022-09-30T15:45:35.523Z,1.40
2022-09-30T15:48:22.583Z,1.77
2022-09-30T15:50:53.252Z,1.40
2022-09-30T15:53:33.690Z,1.40
2022-09-30T15:56:17.997Z,1.10
2022-09-30T15:58:57.678Z,1.50
2022-09-30T16:01:33.388Z,1.63
2022-09-30T16:04:15.432Z,1.60
2022-09-30T16:06:52.731Z,1.30
2022-09-30T16:09:29.986Z,1.60
2022-09-30T16:12:03.733Z,1.50
2022-09-30T16:14:33.722Z,1.50
2022-09-30T16:17:02.832Z,1.40
2022-09-30T16:19:30.948Z,1.27
2022-09-30T16:21:58.454Z,1.43
2022-09-30T16:24:28.388Z,1.20
2022-09-30T16:26:56.586Z,1.50
2022-09-30T16:29:25.765Z,1.20
2022-09-30T16:31:54.905Z,1.23
2022-09-30T16:34:23.710Z,1.50
2022-09-30T16:36:50.941Z,1.47
2022-09-30T16:39:17.906Z,1.67
2022-09-30T16:41:45.590Z,1.70
2022-09-30T16:44:13.132Z,1.80
2022-09-30T16:46:40.232Z,1.70
2022-09-30T16:49:14.624Z,1.80
2022-09-30T16:51:42.292Z,2.00
2022-09-30T16:54:10.236Z,1.83
2022-09-30T16:56:37.126Z,2.10
2022-09-30T16:59:08.442Z,1.70
2022-09-30T17:01:35.149Z,2.20
2022-09-30T17:04:02.051Z,2.00
2022-09-30T17:06:30.789Z,2.17
2022-09-30T17:08:58.280Z,2.07
2022-09-30T17:11:33.504Z,1.93
2022-09-30T17:14:01.984Z,2.50
2022-09-30T17:16:29.099Z,2.33
2022-09-30T17:18:56.176Z,2.97
2022-09-30T17:21:24.885Z,2.70
2022-09-30T17:23:52.396Z,2.50
2022-09-30T17:26:24.420Z,2.90
2022-09-30T17:28:51.269Z,2.50
2022-09-30T17:31:18.769Z,2.50
2022-09-30T17:33:46.074Z,2.70
2022-09-30T17:36:14.228Z,2.70
2022-09-30T17:38:41.790Z,2.47
2022-09-30T17:41:29.391Z,2.40
2022-09-30T17:43:58.106Z,2.60
2022-09-30T17:46:25.730Z,2.40
2022-09-30T17:48:55.890Z,2.47
2022-09-30T17:51:22.745Z,2.57
2022-09-30T17:53:50.226Z,2.70
2022-09-30T17:56:20.280Z,2.50
2022-09-30T17:58:49.122Z,2.60
2022-09-30T18:01:17.753Z,2.70
2022-09-30T18:03:47.955Z,2.53
2022-09-30T18:06:15.352Z,2.50
2022-09-30T18:08:42.160Z,2.93
2022-09-30T18:11:10.379Z,2.87
2022-09-30T18:13:37.109Z,2.90
2022-09-30T18:16:07.347Z,3.27
2022-09-30T18:18:35.319Z,3.60
2022-09-30T18:21:02.216Z,3.37
2022-09-30T18:23:28.909Z,3.60
2022-09-30T18:25:56.600Z,3.77
2022-09-30T18:28:23.703Z,3.77
2022-09-30T18:30:50.667Z,4.07
2022-09-30T18:33:21.631Z,4.27
2022-09-30T18:35:48.821Z,4.40
2022-09-30T18:38:15.778Z,4.80
2022-09-30T18:40:43.614Z,4.47
2022-09-30T18:43:12.947Z,4.27
2022-09-30T18:45:40.258Z,4.13
2022-09-30T18:48:07.814Z,4.23
2022-09-30T18:50:34.750Z,4.63
2022-09-30T18:53:09.464Z,4.30
2022-09-30T18:55:38.273Z,4.23
2022-09-30T18:58:05.885Z,4.47
2022-09-30T19:00:32.748Z,4.30
2022-09-30T19:02:59.753Z,4.10
2022-09-30T19:05:27.216Z,4.27
2022-09-30T19:07:54.623Z,4.17
2022-09-30T19:10:21.975Z,4.27
2022-09-30T19:12:50.137Z,4.47
2022-09-30T19:15:17.214Z,5.20
2022-09-30T19:17:44.599Z,4.80
2022-09-30T19:20:12.349Z,5.30
2022-09-30T19:22:39.313Z,4.87
2022-09-30T19:25:14.010Z,5.70
2022-09-30T19:27:41.382Z,5.23
2022-09-30T19:30:12.670Z,5.70
2022-09-30T19:32:39.954Z,5.50
2022-09-30T19:35:14.192Z,5.63
2022-09-30T19:37:53.460Z,5.30
2022-09-30T19:40:24.569Z,5.13
2022-09-30T19:42:51.430Z,5.70
2022-09-30T19:45:24.020Z,5.07
2022-09-30T19:47:52.557Z,5.10
2022-09-30T19:50:19.332Z,5.40
2022-09-30T19:52:55.676Z,5.20
2022-09-30T19:55:24.016Z,5.13
2022-09-30T19:57:50.706Z,4.97
2022-09-30T20:00:17.406Z,4.80
2022-09-30T20:02:44.187Z,5.23
2022-09-30T20:05:10.990Z,5.17
2022-09-30T20:07:37.821Z,5.37
2022-09-30T20:10:05.093Z,4.80
2022-09-30T20:12:31.998Z,4.87
2022-09-30T20:15:17.541Z,5.23
2022-09-30T20:17:44.407Z,4.30
2022-09-30T20:20:29.955Z,4.50
2022-09-30T20:23:00.766Z,4.70
2022-09-30T20:25:28.230Z,5.00
2022-09-30T20:27:55.122Z,4.93
2022-09-30T20:30:22.017Z,4.87
2022-09-30T20:32:48.779Z,4.80
2022-09-30T20:35:15.618Z,4.83
2022-09-30T20:37:42.776Z,4.73
2022-09-30T20:40:10.112Z,5.30
2022-09-30T20:42:38.662Z,4.93
2022-09-30T20:45:10.273Z,5.03
2022-09-30T20:47:38.502Z,5.23
2022-09-30T20:50:06.610Z,5.00
2022-09-30T20:52:33.509Z,4.87
2022-09-30T20:55:00.429Z,5.30
2022-09-30T20:57:31.586Z,5.10
2022-09-30T20:59:59.785Z,4.97
2022-09-30T21:02:30.044Z,5.00
2022-09-30T21:04:58.020Z,5.20
2022-09-30T21:07:26.349Z,5.30
2022-09-30T21:09:53.064Z,5.00
2022-09-30T21:12:19.977Z,5.33
2022-09-30T21:14:46.785Z,5.00
2022-09-30T21:17:13.602Z,5.20
2022-09-30T21:19:40.297Z,5.13
2022-09-30T21:22:07.270Z,5.10
2022-09-30T21:24:33.964Z,5.33
2022-09-30T21:27:05.839Z,4.90
2022-09-30T21:29:32.938Z,4.67
2022-09-30T21:32:00.058Z,4.57
2022-09-30T21:34:27.056Z,4.53
2022-09-30T21:36:53.855Z,4.70
2022-09-30T21:39:20.607Z,4.50
2022-09-30T21:41:47.642Z,4.73
2022-09-30T21:44:15.391Z,4.70
2022-09-30T21:46:47.333Z,4.57
2022-09-30T21:49:19.981Z,4.90
2022-09-30T21:51:47.239Z,4.50
2022-09-30T21:54:14.157Z,4.53
2022-09-30T21:56:42.731Z,3.87
2022-09-30T21:59:10.141Z,4.57
2022-09-30T22:01:37.535Z,4.50
2022-09-30T22:04:05.397Z,4.60
2022-09-30T22:06:32.096Z,4.77
2022-09-30T22:09:01.423Z,4.27
2022-09-30T22:11:29.616Z,4.43
2022-09-30T22:13:57.875Z,4.50
2022-09-30T22:16:31.024Z,4.30
2022-09-30T22:19:00.834Z,4.57
2022-09-30T22:21:33.052Z,4.80
2022-09-30T22:24:01.603Z,4.83
2022-09-30T22:26:29.200Z,4.67
2022-09-30T22:28:58.165Z,4.83
2022-09-30T22:31:27.269Z,4.70
2022-09-30T22:34:17.955Z,5.10
2022-09-30T22:37:03.188Z,4.60
2022-09-30T22:39:29.989Z,4.70
2022-09-30T22:41:57.505Z,4.90
2022-09-30T22:44:26.546Z,4.90
2022-09-30T22:46:53.867Z,4.87
2022-09-30T22:49:21.142Z,5.20
2022-09-30T22:51:53.722Z,4.43
2022-09-30T22:54:21.023Z,4.63
2022-09-30T22:56:50.369Z,4.90
2022-09-30T22:59:20.697Z,4.40
2022-09-30T23:01:48.348Z,4.10
2022-09-30T23:04:17.479Z,4.70
2022-09-30T23:06:46.867Z,4.33
2022-09-30T23:09:15.268Z,4.17
2022-09-30T23:11:46.046Z,3.90
2022-09-30T23:14:13.119Z,4.03
2022-09-30T23:16:40.081Z,4.20
2022-09-30T23:19:06.953Z,4.27
2022-09-30T23:21:34.145Z,4.00
2022-09-30T23:24:01.951Z,3.87
2022-09-30T23:26:29.698Z,3.60
2022-09-30T23:28:57.287Z,3.70
2022-09-30T23:31:24.166Z,3.73
2022-09-30T23:33:53.610Z,4.03
2022-09-30T23:36:29.444Z,4.37
2022-09-30T23:39:14.708Z,3.63
2022-09-30T23:41:43.559Z,4.23
2022-09-30T23:44:10.492Z,3.67
2022-09-30T23:46:37.195Z,3.73
2022-09-30T23:49:04.000Z,3.63
2022-09-30T23:51:33.635Z,4.07
2022-09-30T23:54:02.311Z,4.17
2022-09-30T23:56:29.106Z,3.60
2022-09-30T23:58:55.806Z,4.03
